Data for 04/23/2010

Time Sea-Level Adjusted Pressure Absolute Pressure Temperature Relative Humidity Dew Point   
(mb) (inHg) (mb) (inHg) (C) (F) (%) (C) (F)
00:05 1008 29.77 837 24.72 8.1 46.6 84 5.7 42.2
00:10 1008 29.77 837 24.72 8.1 46.6 85 5.7 42.3
00:15 1008 29.77 837 24.72 8.1 46.5 85 5.8 42.4
00:20 1008 29.77 837 24.72 8 46.4 86 5.9 42.5
00:25 1008 29.77 837 24.72 7.9 46.2 87 5.8 42.4
00:30 1008 29.77 837 24.72 7.8 46.1 87 5.7 42.3
00:35 1008 29.77 837 24.72 7.8 46.1 86 5.7 42.2
00:40 1008 29.77 837 24.72 7.8 46 87 5.8 42.4
00:45 1008 29.77 837 24.72 7.8 46 87 5.8 42.4
00:50 1008 29.77 837 24.72 7.8 46.1 86 5.7 42.3
00:55 1008 29.77 837 24.72 7.9 46.1 86 5.7 42.3
01:00 1008 29.77 837 24.72 7.8 46 87 5.7 42.3
01:05 1008 29.77 837 24.72 7.8 46 87 5.8 42.4
01:10 1008 29.77 837 24.72 7.8 46 87 5.8 42.4
01:15 1008 29.77 837 24.72 7.8 46 88 5.9 42.5
01:20 1008 29.77 837 24.72 7.7 45.8 89 5.9 42.6
01:25 1008 29.77 837 24.72 7.6 45.7 89 5.9 42.6
01:30 1008 29.77 837 24.72 7.6 45.8 89 6 42.8
01:35 1008 29.77 837 24.72 7.7 45.8 89 6 42.9
01:40 1008 29.77 837 24.72 7.6 45.8 89 6 42.8
01:45 1008 29.77 837 24.72 7.6 45.7 90 6.1 43
01:50 1008 29.77 837 24.72 7.7 45.8 90 6.2 43.1
01:55 1008 29.77 837 24.72 7.7 45.8 91 6.2 43.2
02:00 1008 29.77 837 24.72 7.7 45.8 90 6.2 43.1
02:05 1008 29.77 837 24.72 7.7 45.9 91 6.3 43.3
02:10 1008 29.77 837 24.72 7.8 46 90 6.3 43.3
02:15 1008 29.77 837 24.72 7.8 46.1 89 6.1 43.1
02:20 1008 29.77 837 24.72 7.9 46.2 89 6.3 43.3
02:25 1008 29.77 837 24.72 8 46.3 90 6.4 43.5
02:30 1008 29.77 838 24.75 8 46.3 89 6.3 43.3
02:35 1008 29.77 838 24.75 7.9 46.3 88 6.1 42.9
02:40 1008 29.77 838 24.75 7.9 46.3 88 6.1 42.9
02:45 1008 29.77 838 24.75 7.9 46.3 87 5.9 42.5
02:50 1008 29.77 838 24.75 7.8 46.1 85 5.4 41.8
02:55 1008 29.77 838 24.75 7.7 45.9 84 5.2 41.4
03:00 1008 29.77 838 24.75 7.6 45.7 85 5.2 41.4
03:05 1008 29.77 838 24.75 7.5 45.5 85 5.1 41.1
03:10 1008 29.77 838 24.75 7.5 45.5 85 5.2 41.3
03:15 1008 29.77 838 24.75 7.5 45.6 83 4.8 40.7
03:20 1009 29.8 838 24.75 7.5 45.5 84 5 41
03:25 1009 29.8 838 24.75 7.3 45.2 87 5.3 41.6
03:30 1009 29.8 838 24.75 7 44.6 89 5.3 41.6
03:35 1009 29.8 838 24.75 6.7 44.1 88 4.9 40.8
03:40 1009 29.8 838 24.75 6.5 43.7 86 4.3 39.8
03:45 1009 29.8 838 24.75 6.4 43.5 82 3.6 38.5
03:50 1009 29.8 838 24.75 6.5 43.7 84 3.9 39.1
03:55 1009 29.8 838 24.75 6.5 43.6 87 4.4 39.9
04:00 1009 29.8 838 24.75 6.4 43.4 88 4.5 40.2
04:05 1009 29.8 838 24.75 6.3 43.4 88 4.6 40.2
04:10 1009 29.8 838 24.75 6.4 43.5 88 4.6 40.2
04:15 1009 29.8 838 24.75 6.4 43.5 86 4.2 39.5
04:20 1009 29.8 838 24.75 6.4 43.6 85 4.1 39.3
04:25 1009 29.8 839 24.78 6.4 43.5 84 3.8 38.9
04:30 1009 29.8 839 24.78 6.4 43.5 82 3.6 38.5
04:35 1010 29.83 839 24.78 6.4 43.5 82 3.5 38.2
04:40 1010 29.83 839 24.78 6.3 43.4 80 3.2 37.8
04:45 1010 29.83 839 24.78 6.3 43.3 80 3 37.5
04:50 1010 29.83 839 24.78 6.2 43.2 81 3.1 37.7
04:55 1010 29.83 839 24.78 6.2 43.1 82 3.4 38.1
05:00 1010 29.83 839 24.78 6.1 42.9 82 3.2 37.8
05:05 1010 29.83 839 24.78 6 42.8 80 2.8 37
05:10 1010 29.83 839 24.78 6 42.7 80 2.7 36.9
05:15 1010 29.83 839 24.78 5.9 42.6 78 2.3 36.1
05:20 1010 29.83 839 24.78 5.8 42.4 76 2 35.6
05:25 1010 29.83 840 24.81 5.7 42.3 75 1.6 34.9
05:30 1010 29.83 840 24.81 5.6 42.1 75 1.5 34.7
05:35 1010 29.83 840 24.81 5.6 42 74 1.3 34.4
05:40 1011 29.85 840 24.81 5.6 42.1 73 1.2 34.1
05:45 1011 29.85 840 24.81 5.7 42.2 73 1.2 34.2
05:50 1011 29.85 840 24.81 5.6 42.1 72 1 33.8
05:55 1011 29.85 840 24.81 5.5 42 70 0.5 32.9
06:00 1011 29.85 840 24.81 5.5 41.9 69 0.3 32.5
06:05 1011 29.85 840 24.81 5.5 41.8 68 -0 32
06:10 1011 29.85 840 24.81 5.2 41.4 67 -0.4 31.3
06:15 1011 29.85 840 24.81 5.1 41.2 68 -0.4 31.3
06:20 1011 29.85 840 24.81 5 41 67 -0.6 31
06:25 1011 29.85 840 24.81 4.9 40.9 67 -0.7 30.7
06:30 1011 29.85 840 24.81 4.9 40.7 65 -1.1 30.1
06:35 1011 29.85 840 24.81 4.8 40.7 65 -1.3 29.7
06:40 1011 29.85 840 24.81 4.7 40.4 67 -1 30.3
06:45 1011 29.85 840 24.81 4.5 40.2 69 -0.7 30.7
06:50 1011 29.85 840 24.81 4.5 40.1 69 -0.7 30.7
06:55 1011 29.85 840 24.81 4.4 39.9 69 -0.8 30.6
07:00 1011 29.85 840 24.81 4.4 40 70 -0.7 30.8
07:05 1011 29.85 840 24.81 4.6 40.3 67 -1 30.2
07:10 1011 29.85 840 24.81 4.8 40.6 66 -1 30.2
07:15 1011 29.85 840 24.81 4.8 40.6 67 -0.9 30.3
07:20 1011 29.85 841 24.83 4.7 40.4 66 -1.2 29.8
07:25 1011 29.85 841 24.83 4.6 40.4 64 -1.5 29.3
07:30 1011 29.85 841 24.83 4.8 40.6 63 -1.7 28.9
07:35 1012 29.88 841 24.83 4.9 40.8 62 -1.7 28.9
07:40 1012 29.88 841 24.83 5.1 41.1 61 -1.8 28.8
07:45 1012 29.88 841 24.83 5.2 41.4 60 -1.8 28.7
07:50 1012 29.88 841 24.83 5.4 41.8 61 -1.6 29.2
07:55 1012 29.88 841 24.83 5.7 42.3 62 -0.9 30.4
08:00 1012 29.88 841 24.83 5.8 42.4 60 -1.4 29.4
08:05 1012 29.88 841 24.83 5.7 42.3 59 -1.8 28.8
08:10 1012 29.88 841 24.83 5.9 42.6 57 -2 28.3
08:15 1012 29.88 841 24.83 5.8 42.5 55 -2.5 27.5
08:20 1012 29.88 841 24.83 5.9 42.6 55 -2.4 27.6
08:25 1012 29.88 841 24.83 6.2 43.2 51 -3.1 26.5
08:30 1012 29.88 841 24.83 6.5 43.6 51 -2.8 26.9
08:35 1012 29.88 841 24.83 6.5 43.6 50 -3.1 26.4
08:40 1012 29.88 841 24.83 6.3 43.3 51 -3.1 26.4
08:45 1012 29.88 841 24.83 6.2 43.1 51 -3.2 26.2
08:50 1012 29.88 841 24.83 6.1 43 50 -3.4 25.9
08:55 1012 29.88 841 24.83 6.1 42.9 51 -3.4 25.8
09:00 1012 29.88 841 24.83 6.1 43.1 52 -2.9 26.9
09:05 1012 29.88 841 24.83 6.3 43.4 51 -3 26.6
09:10 1012 29.88 841 24.83 6.5 43.7 50 -3.3 26.1
09:15 1012 29.88 841 24.83 6.5 43.7 49 -3.5 25.7
09:20 1012 29.88 841 24.83 6.8 44.2 46 -4 24.7
09:25 1012 29.88 841 24.83 7 44.7 48 -3.3 26
09:30 1012 29.88 842 24.86 7.7 45.8 45 -3.5 25.7
09:35 1012 29.88 842 24.86 7.7 45.8 44 -3.7 25.3
09:40 1012 29.88 842 24.86 7.7 45.9 43 -4.1 24.6
09:45 1012 29.88 842 24.86 7.9 46.2 42 -4.1 24.7
09:50 1012 29.88 842 24.86 8.6 47.4 42 -3.6 25.5
09:55 1012 29.88 842 24.86 8.8 47.8 40 -4 24.8
10:00 1012 29.88 842 24.86 9.3 48.8 39 -3.8 25.2
10:05 1012 29.88 842 24.86 9.4 48.8 40 -3.5 25.7
10:10 1012 29.88 842 24.86 9.1 48.3 37 -4.8 23.3
10:15 1012 29.88 842 24.86 9.1 48.4 36 -5.3 22.5
10:20 1012 29.88 842 24.86 9.3 48.7 34 -5.9 21.4
10:25 1012 29.88 842 24.86 9.4 48.9 33 -5.9 21.3
10:30 1012 29.88 842 24.86 9.5 49.1 34 -5.5 22.1
10:35 1012 29.88 842 24.86 9.3 48.8 35 -5.5 22.1
10:40 1012 29.88 842 24.86 8.8 47.8 35 -5.8 21.6
10:45 1012 29.88 842 24.86 8.7 47.7 36 -5.3 22.4
10:50 1013 29.91 842 24.86 9.2 48.6 33 -6 21.1
10:55 1013 29.91 842 24.86 9.4 48.9 34 -5.8 21.6
11:00 1013 29.91 842 24.86 9.3 48.8 32 -6.6 20.2
11:05 1013 29.91 842 24.86 9.6 49.3 33 -5.7 21.7
11:10 1013 29.91 842 24.86 9.8 49.6 30 -6.9 19.7
11:15 1013 29.91 842 24.86 9.9 49.8 32 -6.1 21
11:20 1013 29.91 842 24.86 10.1 50.3 32 -5.8 21.6
11:25 1013 29.91 842 24.86 10.6 51 31 -6 21.3
11:30 1013 29.91 842 24.86 10.3 50.5 32 -5.5 22
11:35 1013 29.91 842 24.86 9.9 49.9 32 -6.1 21
11:40 1013 29.91 842 24.86 10.4 50.8 31 -5.9 21.5
11:45 1013 29.91 842 24.86 10.5 50.8 30 -6.3 20.6
11:50 1013 29.91 842 24.86 10.6 51.1 29 -6.6 20
11:55 1013 29.91 842 24.86 10.1 50.1 30 -6.8 19.8
12:00 1013 29.91 842 24.86 10.3 50.5 29 -6.8 19.7
12:05 1013 29.91 842 24.86 10.5 50.9 29 -6.8 19.8
12:10 1013 29.91 842 24.86 10.4 50.6 28 -7.2 19.1
12:15 1013 29.91 842 24.86 10.4 50.7 29 -6.8 19.8
12:20 1012 29.88 842 24.86 10.8 51.5 29 -6.4 20.5
12:25 1012 29.88 842 24.86 11 51.8 27 -7.3 18.9
12:30 1012 29.88 842 24.86 11.2 52.1 26 -7.5 18.4
12:35 1012 29.88 842 24.86 11.6 52.8 27 -6.9 19.5
12:40 1012 29.88 842 24.86 11.6 52.8 25 -7.8 17.9
12:45 1012 29.88 842 24.86 11.4 52.6 25 -7.8 17.9
12:50 1012 29.88 842 24.86 11.4 52.5 26 -7.5 18.5
12:55 1012 29.88 841 24.83 11.6 52.9 26 -7.2 19
13:00 1012 29.88 842 24.86 11.9 53.4 25 -7.6 18.3
13:05 1012 29.88 842 24.86 11.6 52.8 26 -7.4 18.7
13:10 1012 29.88 841 24.83 11.8 53.2 27 -6.6 20.1
13:15 1012 29.88 842 24.86 12.2 54 25 -7.4 18.7
13:20 1012 29.88 842 24.86 12.3 54.2 25 -7 19.5
13:25 1012 29.88 841 24.83 12.1 53.9 25 -7.1 19.2
13:30 1012 29.88 841 24.83 12.1 53.8 26 -6.7 20
13:35 1012 29.88 841 24.83 12.1 53.7 25 -7.2 19
13:40 1012 29.88 841 24.83 11.7 53 25 -7.5 18.4
13:45 1012 29.88 841 24.83 11.8 53.2 25 -7.7 18.1
13:50 1012 29.88 841 24.83 12.1 53.8 23 -8.5 16.6
13:55 1012 29.88 841 24.83 12.7 54.8 22 -8.3 17.1
14:00 1012 29.88 841 24.83 12.6 54.7 22 -8.3 17.1
14:05 1012 29.88 841 24.83 12.7 54.8 23 -8.1 17.4
14:10 1012 29.88 841 24.83 12.8 55.1 22 -8.5 16.7
14:15 1012 29.88 841 24.83 13.2 55.8 23 -7.1 19.1
14:20 1012 29.88 842 24.86 13.5 56.4 23 -7.4 18.6
14:25 1012 29.88 841 24.83 13.3 55.9 24 -7 19.4
14:30 1012 29.88 842 24.86 13.1 55.7 24 -7.2 19.1
14:35 1012 29.88 842 24.86 13 55.4 25 -6.8 19.8
14:40 1012 29.88 842 24.86 13.1 55.6 24 -7.2 19.1
14:45 1012 29.88 842 24.86 13.7 56.7 23 -6.9 19.6
14:50 1012 29.88 842 24.86 13.9 57 23 -6.9 19.6
14:55 1012 29.88 842 24.86 14.1 57.3 22 -7.2 19
15:00 1012 29.88 842 24.86 12.7 54.9 26 -6.3 20.6
15:05 1012 29.88 842 24.86 12.6 54.7 25 -6.7 19.9
15:10 1012 29.88 842 24.86 13.2 55.8 24 -7.1 19.2
15:15 1012 29.88 842 24.86 13.5 56.3 24 -6.5 20.3
15:20 1012 29.88 842 24.86 13.5 56.3 23 -7.1 19.2
15:25 1012 29.88 842 24.86 13.2 55.8 25 -6.3 20.6
15:30 1012 29.88 842 24.86 13.8 56.9 23 -6.9 19.6
15:35 1013 29.91 842 24.86 13.6 56.5 23 -7.2 19.1
15:40 1013 29.91 842 24.86 14 57.3 23 -6.9 19.6
15:45 1013 29.91 842 24.86 13.3 56 23 -7.4 18.7
15:50 1012 29.88 842 24.86 13.1 55.6 23 -7.7 18.2
15:55 1013 29.91 842 24.86 12.8 55.1 24 -7.3 18.9
16:00 1013 29.91 842 24.86 12.6 54.7 24 -7.6 18.3
16:05 1013 29.91 842 24.86 12.2 53.9 24 -7.9 17.8
16:10 1012 29.88 842 24.86 12.6 54.7 23 -7.8 18
16:15 1012 29.88 842 24.86 12.5 54.5 23 -7.9 17.8
16:20 1012 29.88 842 24.86 13.6 56.4 22 -7.4 18.6
16:25 1012 29.88 842 24.86 13.8 56.8 21 -7.8 17.9
16:30 1012 29.88 842 24.86 14.1 57.4 21 -7.7 18.1
16:35 1012 29.88 842 24.86 14.1 57.3 22 -7.6 18.4
16:40 1012 29.88 842 24.86 14 57.3 22 -7.6 18.3
16:45 1013 29.91 842 24.86 14.4 57.8 21 -7.8 18
16:50 1013 29.91 842 24.86 14.3 57.8 21 -7.6 18.4
16:55 1013 29.91 842 24.86 14 57.3 21 -7.6 18.3
17:00 1013 29.91 842 24.86 14 57.2 21 -8.2 17.3
17:05 1013 29.91 842 24.86 14.2 57.5 21 -7.6 18.3
17:10 1013 29.91 842 24.86 14.3 57.8 20 -8.1 17.4
17:15 1013 29.91 842 24.86 14.5 58.1 19 -8.5 16.7
17:20 1013 29.91 842 24.86 14.4 57.8 20 -8.2 17.3
17:25 1013 29.91 842 24.86 14 57.2 21 -8.2 17.3
17:30 1013 29.91 842 24.86 14 57.2 20 -8.3 17
17:35 1013 29.91 842 24.86 14.2 57.5 20 -8.4 16.9
17:40 1013 29.91 842 24.86 13.9 57 20 -8.7 16.3
17:45 1013 29.91 842 24.86 14 57.2 20 -8.5 16.8
17:50 1013 29.91 842 24.86 13.9 57 21 -8.1 17.5
17:55 1013 29.91 842 24.86 14 57.3 21 -8.2 17.3
18:00 1013 29.91 842 24.86 14.1 57.3 21 -7.9 17.8
18:05 1013 29.91 842 24.86 14.2 57.6 20 -8.3 17.1
18:10 1013 29.91 842 24.86 13.8 56.8 21 -8.1 17.5
18:15 1013 29.91 842 24.86 13.5 56.4 22 -8 17.5
18:20 1013 29.91 842 24.86 13.7 56.7 21 -8.1 17.4
18:25 1013 29.91 842 24.86 13.7 56.6 21 -8.2 17.3
18:30 1013 29.91 842 24.86 13.6 56.4 22 -7.7 18.1
18:35 1013 29.91 842 24.86 13.6 56.5 21 -8 17.5
18:40 1013 29.91 842 24.86 13.6 56.4 21 -8 17.5
18:45 1013 29.91 842 24.86 12.9 55.3 22 -8.2 17.2
18:50 1013 29.91 842 24.86 12.8 55 22 -8.2 17.2
18:55 1013 29.91 842 24.86 12.8 55.1 23 -7.7 18.1
19:00 1013 29.91 842 24.86 12.7 54.8 23 -7.9 17.8
19:05 1013 29.91 842 24.86 12.3 54.2 23 -8 17.6
19:10 1013 29.91 842 24.86 12.5 54.6 23 -7.9 17.8
19:15 1013 29.91 842 24.86 12.5 54.6 22 -8.4 16.9
19:20 1013 29.91 842 24.86 12.6 54.6 23 -8.3 17.1
19:25 1013 29.91 842 24.86 12.5 54.6 22 -8.3 17
19:30 1013 29.91 842 24.86 12.4 54.3 23 -8.1 17.4
19:35 1013 29.91 842 24.86 12.1 53.9 24 -8 17.7
19:40 1013 29.91 842 24.86 12.1 53.8 23 -8.1 17.3
19:45 1013 29.91 842 24.86 12.1 53.8 24 -8 17.6
19:50 1013 29.91 842 24.86 12.1 53.8 24 -7.8 17.9
19:55 1013 29.91 842 24.86 12 53.5 24 -8 17.7
20:00 1013 29.91 842 24.86 11.9 53.4 25 -7.7 18.2
20:05 1013 29.91 842 24.86 11.8 53.3 25 -7.5 18.5
20:10 1013 29.91 842 24.86 11.7 53.1 25 -7.4 18.6
20:15 1013 29.91 842 24.86 11.4 52.6 25 -8 17.6
20:20 1013 29.91 842 24.86 11.2 52.2 25 -7.8 17.9
20:25 1013 29.91 842 24.86 11 51.8 27 -7.4 18.6
20:30 1013 29.91 843 24.89 10.9 51.5 27 -7.4 18.6
20:35 1013 29.91 843 24.89 10.7 51.3 28 -7.2 19.1
20:40 1013 29.91 843 24.89 10.6 51 29 -6.8 19.8
20:45 1014 29.94 843 24.89 10.4 50.8 30 -6.4 20.5
20:50 1014 29.94 843 24.89 9.8 49.6 36 -4.4 24
20:55 1014 29.94 843 24.89 8.8 47.8 41 -3.9 25
21:00 1014 29.94 843 24.89 8.1 46.5 43 -3.7 25.3
21:05 1014 29.94 843 24.89 7.8 46.1 44 -3.5 25.6
21:10 1014 29.94 843 24.89 7.5 45.5 46 -3.4 25.8
21:15 1014 29.94 843 24.89 7.2 45 47 -3.3 26
21:20 1014 29.94 843 24.89 7 44.6 47 -3.4 25.8
21:25 1014 29.94 843 24.89 6.9 44.4 48 -3.4 25.8
21:30 1014 29.94 843 24.89 6.8 44.3 48 -3.4 25.8
21:35 1014 29.94 843 24.89 6.4 43.5 49 -3.5 25.7
21:40 1014 29.94 843 24.89 6.2 43.1 50 -3.4 25.8
21:45 1014 29.94 843 24.89 6 42.9 50 -3.5 25.7
21:50 1014 29.94 843 24.89 5.8 42.5 49 -4 24.8
21:55 1014 29.94 843 24.89 5.9 42.7 48 -4.2 24.4
22:00 1014 29.94 843 24.89 5.8 42.5 51 -3.6 25.6
22:05 1014 29.94 843 24.89 5.5 41.9 51 -3.8 25.1
22:10 1014 29.94 843 24.89 5.3 41.6 51 -4 24.9
22:15 1014 29.94 843 24.89 5.3 41.5 51 -4.1 24.6
22:20 1014 29.94 843 24.89 5.2 41.4 51 -4.2 24.4
22:25 1014 29.94 843 24.89 5.3 41.6 49 -4.5 24
22:30 1014 29.94 843 24.89 5.4 41.7 49 -4.5 23.8
22:35 1014 29.94 844 24.92 5.3 41.5 50 -4.2 24.4
22:40 1014 29.94 844 24.92 5.1 41.1 50 -4.5 23.8
22:45 1014 29.94 844 24.92 5 40.9 51 -4.3 24.3
22:50 1015 29.97 844 24.92 4.8 40.7 52 -4.3 24.2
22:55 1015 29.97 844 24.92 4.8 40.6 52 -4.2 24.4
23:00 1015 29.97 844 24.92 4.6 40.3 53 -4.2 24.4
23:05 1015 29.97 844 24.92 4.6 40.3 51 -4.6 23.6
23:10 1015 29.97 844 24.92 4.7 40.4 52 -4.4 24.1
23:15 1015 29.97 844 24.92 4.6 40.2 51 -4.6 23.8
23:20 1015 29.97 844 24.92 4.5 40.1 52 -4.4 24
23:25 1015 29.97 844 24.92 4.5 40 52 -4.4 24
23:30 1015 29.97 844 24.92 4.4 39.9 52 -4.6 23.8
23:35 1015 29.97 844 24.92 4.4 39.9 53 -4.4 24
23:40 1015 29.97 844 24.92 4.3 39.7 53 -4.4 24.1
23:45 1015 29.97 844 24.92 4.3 39.8 53 -4.5 23.9
23:50 1015 29.97 844 24.92 4.4 39.9 54 -4.2 24.4
23:55 1015 29.97 844 24.92 4.4 39.8 53 -4.3 24.3
24:00 1015 29.97 844 24.92 4.3 39.7 54 -4.2 24.4